createdAt,value
2023-03-27T00:13:49.130Z,7.81
2023-03-27T00:28:53.520Z,7.76
2023-03-27T00:43:56.440Z,7.66
2023-03-27T00:59:02.732Z,7.58
2023-03-27T01:14:46.906Z,7.57
2023-03-27T01:30:06.366Z,7.52
2023-03-27T01:45:20.406Z,7.44
2023-03-27T02:00:24.306Z,7.39
2023-03-27T02:15:36.037Z,7.38
2023-03-27T02:30:47.196Z,7.43
2023-03-27T02:46:29.128Z,7.34
2023-03-27T03:01:34.050Z,7.21
2023-03-27T03:16:36.891Z,6.97
2023-03-27T03:31:45.592Z,6.63
2023-03-27T03:46:48.326Z,6.20
2023-03-27T04:01:50.965Z,5.80
2023-03-27T04:16:53.647Z,5.32
2023-03-27T04:31:57.464Z,4.70
2023-03-27T04:47:02.218Z,3.97
2023-03-27T05:02:06.553Z,3.21
2023-03-27T05:17:09.419Z,2.91
2023-03-27T05:32:12.019Z,2.91
2023-03-27T05:47:15.411Z,2.85
2023-03-27T06:02:21.156Z,2.73
2023-03-27T06:17:24.576Z,2.32
2023-03-27T06:32:27.714Z,1.91
2023-03-27T06:47:31.916Z,1.62
2023-03-27T07:02:36.139Z,1.50
2023-03-27T07:17:48.543Z,1.51
2023-03-27T07:32:51.826Z,1.78
2023-03-27T07:47:54.869Z,2.19
2023-03-27T08:03:06.504Z,2.36
2023-03-27T08:18:11.524Z,2.61
2023-03-27T08:33:14.165Z,3.26
2023-03-27T08:48:21.666Z,3.43
2023-03-27T09:03:38.834Z,3.41
2023-03-27T09:19:07.124Z,3.74
2023-03-27T09:34:14.758Z,3.97
2023-03-27T09:49:20.808Z,4.10
2023-03-27T10:04:25.674Z,3.76
2023-03-27T10:19:38.733Z,3.83
2023-03-27T10:34:57.401Z,3.85
2023-03-27T10:50:10.321Z,4.29
2023-03-27T11:05:20.714Z,4.31
2023-03-27T11:20:31.369Z,4.39
2023-03-27T11:35:43.997Z,4.75
2023-03-27T11:50:54.946Z,5.71
2023-03-27T12:06:06.835Z,5.41
2023-03-27T12:21:43.904Z,5.70
2023-03-27T12:36:48.294Z,5.42
2023-03-27T12:51:54.238Z,6.20
2023-03-27T13:07:18.965Z,7.09
2023-03-27T13:22:37.029Z,7.06
2023-03-27T13:37:48.254Z,6.85
2023-03-27T13:53:16.641Z,7.23
2023-03-27T14:08:35.435Z,6.85
2023-03-27T14:24:21.430Z,6.92
2023-03-27T14:39:27.972Z,6.98
2023-03-27T14:54:34.877Z,6.37
2023-03-27T15:09:42.217Z,6.27
2023-03-27T15:24:51.618Z,6.80
2023-03-27T15:40:36.683Z,6.20
2023-03-27T15:55:45.219Z,5.81
2023-03-27T16:10:48.367Z,5.52
2023-03-27T16:25:51.042Z,5.23
2023-03-27T16:40:53.776Z,4.93
2023-03-27T16:55:56.744Z,4.64
2023-03-27T17:11:09.243Z,4.37
2023-03-27T17:26:15.988Z,3.89
2023-03-27T17:41:20.338Z,3.38
2023-03-27T17:56:23.179Z,2.84
2023-03-27T18:11:25.866Z,2.41
2023-03-27T18:26:28.470Z,1.87
2023-03-27T18:41:31.140Z,1.72
2023-03-27T18:56:33.776Z,1.27
2023-03-27T19:11:37.024Z,0.72
2023-03-27T19:26:39.838Z,0.07
2023-03-27T19:41:45.686Z,-0.33
2023-03-27T19:56:48.500Z,-0.75
2023-03-27T20:11:51.374Z,-1.00
2023-03-27T20:26:57.106Z,-1.17
2023-03-27T20:41:59.829Z,-1.37
2023-03-27T20:57:03.146Z,-0.87
2023-03-27T21:12:06.694Z,-0.68
2023-03-27T21:27:09.294Z,-0.71
2023-03-27T21:42:12.411Z,-0.87
2023-03-27T21:57:15.719Z,-1.06
2023-03-27T22:12:19.625Z,-0.61
2023-03-27T22:27:22.756Z,-0.33
2023-03-27T22:42:29.707Z,-0.02
2023-03-27T22:57:32.322Z,0.19
2023-03-27T23:12:34.919Z,0.21
2023-03-27T23:27:37.949Z,0.34
2023-03-27T23:42:40.585Z,0.37
2023-03-27T23:57:43.207Z,0.37
